sensor_id;sensor_type;location;lat;lon;timestamp;temperature;humidity
17621;DHT22;8929;51.008;6.804;2023-02-01T00:06:02;7.80;99.90
17621;DHT22;8929;51.008;6.804;2023-02-01T00:08:39;7.70;99.90
17621;DHT22;8929;51.008;6.804;2023-02-01T00:14:34;7.80;99.90
17621;DHT22;8929;51.008;6.804;2023-02-01T00:17:19;7.70;99.90
17621;DHT22;8929;51.008;6.804;2023-02-01T00:19:44;7.70;99.90
17621;DHT22;8929;51.008;6.804;2023-02-01T00:22:10;7.70;99.90
17621;DHT22;8929;51.008;6.804;2023-02-01T00:24:35;7.80;99.90
17621;DHT22;8929;51.008;6.804;2023-02-01T00:27:00;7.70;99.90
17621;DHT22;8929;51.008;6.804;2023-02-01T00:29:26;7.70;99.90
17621;DHT22;8929;51.008;6.804;2023-02-01T00:31:51;7.70;99.90
17621;DHT22;8929;51.008;6.804;2023-02-01T00:34:17;7.60;99.90
17621;DHT22;8929;51.008;6.804;2023-02-01T00:36:43;7.60;99.90
17621;DHT22;8929;51.008;6.804;2023-02-01T00:39:09;7.50;99.90
17621;DHT22;8929;51.008;6.804;2023-02-01T00:41:35;7.50;99.90
17621;DHT22;8929;51.008;6.804;2023-02-01T00:44:00;7.40;99.90
17621;DHT22;8929;51.008;6.804;2023-02-01T00:46:26;7.40;99.90
17621;DHT22;8929;51.008;6.804;2023-02-01T00:48:52;7.40;99.90
17621;DHT22;8929;51.008;6.804;2023-02-01T00:51:22;7.30;99.90
17621;DHT22;8929;51.008;6.804;2023-02-01T00:53:48;7.30;99.90
17621;DHT22;8929;51.008;6.804;2023-02-01T00:56:14;7.30;99.90
17621;DHT22;8929;51.008;6.804;2023-02-01T00:58:39;7.30;99.90
17621;DHT22;8929;51.008;6.804;2023-02-01T01:01:06;7.30;99.90
17621;DHT22;8929;51.008;6.804;2023-02-01T01:03:33;7.40;99.90
17621;DHT22;8929;51.008;6.804;2023-02-01T01:05:59;7.30;99.90
17621;DHT22;8929;51.008;6.804;2023-02-01T01:08:25;7.40;99.90
17621;DHT22;8929;51.008;6.804;2023-02-01T01:10:50;7.30;99.90
17621;DHT22;8929;51.008;6.804;2023-02-01T01:13:16;7.30;99.90
17621;DHT22;8929;51.008;6.804;2023-02-01T01:15:41;7.20;99.90
17621;DHT22;8929;51.008;6.804;2023-02-01T01:18:07;7.10;99.90
17621;DHT22;8929;51.008;6.804;2023-02-01T01:20:36;7.10;99.90
17621;DHT22;8929;51.008;6.804;2023-02-01T01:23:02;7.10;99.90
17621;DHT22;8929;51.008;6.804;2023-02-01T01:25:28;7.00;99.90
17621;DHT22;8929;51.008;6.804;2023-02-01T01:27:53;7.00;99.90
17621;DHT22;8929;51.008;6.804;2023-02-01T01:30:19;6.90;99.90
17621;DHT22;8929;51.008;6.804;2023-02-01T01:32:45;6.90;99.90
17621;DHT22;8929;51.008;6.804;2023-02-01T01:35:10;6.90;99.90
17621;DHT22;8929;51.008;6.804;2023-02-01T01:37:36;6.90;99.90
17621;DHT22;8929;51.008;6.804;2023-02-01T01:40:05;6.90;99.90
17621;DHT22;8929;51.008;6.804;2023-02-01T01:42:36;6.80;99.90
17621;DHT22;8929;51.008;6.804;2023-02-01T01:45:05;6.70;99.90
17621;DHT22;8929;51.008;6.804;2023-02-01T01:47:33;6.70;99.90
17621;DHT22;8929;51.008;6.804;2023-02-01T01:50:01;6.50;99.90
17621;DHT22;8929;51.008;6.804;2023-02-01T01:52:27;6.60;99.90
17621;DHT22;8929;51.008;6.804;2023-02-01T01:54:53;6.60;99.90
17621;DHT22;8929;51.008;6.804;2023-02-01T01:57:31;6.60;99.90
17621;DHT22;8929;51.008;6.804;2023-02-01T02:00:03;6.60;99.90
17621;DHT22;8929;51.008;6.804;2023-02-01T02:02:29;6.70;99.90
17621;DHT22;8929;51.008;6.804;2023-02-01T02:04:55;6.70;99.90
17621;DHT22;8929;51.008;6.804;2023-02-01T02:07:22;6.80;99.90
17621;DHT22;8929;51.008;6.804;2023-02-01T02:09:48;6.80;99.90
17621;DHT22;8929;51.008;6.804;2023-02-01T02:12:13;6.90;99.90
17621;DHT22;8929;51.008;6.804;2023-02-01T02:14:39;6.90;99.90
17621;DHT22;8929;51.008;6.804;2023-02-01T02:27:59;6.90;99.90
17621;DHT22;8929;51.008;6.804;2023-02-01T02:43:43;6.90;99.90
17621;DHT22;8929;51.008;6.804;2023-02-01T02:46:33;7.00;99.90
17621;DHT22;8929;51.008;6.804;2023-02-01T02:49:22;7.00;99.90
17621;DHT22;8929;51.008;6.804;2023-02-01T02:51:55;7.00;99.90
17621;DHT22;8929;51.008;6.804;2023-02-01T02:54:43;7.00;99.90
17621;DHT22;8929;51.008;6.804;2023-02-01T02:57:18;7.00;99.90
17621;DHT22;8929;51.008;6.804;2023-02-01T03:00:04;6.90;99.90
17621;DHT22;8929;51.008;6.804;2023-02-01T03:02:49;7.00;99.90
17621;DHT22;8929;51.008;6.804;2023-02-01T03:05:34;7.00;99.90
17621;DHT22;8929;51.008;6.804;2023-02-01T03:11:08;7.10;99.90
17621;DHT22;8929;51.008;6.804;2023-02-01T03:13:56;7.00;99.90
17621;DHT22;8929;51.008;6.804;2023-02-01T03:21:15;7.10;99.90
17621;DHT22;8929;51.008;6.804;2023-02-01T03:23:41;7.10;99.90
17621;DHT22;8929;51.008;6.804;2023-02-01T03:26:09;7.10;99.90
17621;DHT22;8929;51.008;6.804;2023-02-01T03:28:36;7.10;99.90
17621;DHT22;8929;51.008;6.804;2023-02-01T03:31:02;7.10;99.90
17621;DHT22;8929;51.008;6.804;2023-02-01T03:33:28;7.10;99.90
17621;DHT22;8929;51.008;6.804;2023-02-01T03:36:06;7.10;99.90
17621;DHT22;8929;51.008;6.804;2023-02-01T03:38:38;7.00;99.90
17621;DHT22;8929;51.008;6.804;2023-02-01T03:41:10;7.00;99.90
17621;DHT22;8929;51.008;6.804;2023-02-01T03:43:46;6.90;99.90
17621;DHT22;8929;51.008;6.804;2023-02-01T03:46:15;6.90;99.90
17621;DHT22;8929;51.008;6.804;2023-02-01T03:48:42;6.80;99.90
17621;DHT22;8929;51.008;6.804;2023-02-01T03:51:08;6.70;99.90
17621;DHT22;8929;51.008;6.804;2023-02-01T03:53:34;6.70;99.90
17621;DHT22;8929;51.008;6.804;2023-02-01T03:56:01;6.70;99.90
17621;DHT22;8929;51.008;6.804;2023-02-01T03:58:27;6.80;99.90
17621;DHT22;8929;51.008;6.804;2023-02-01T04:00:57;6.80;99.90
17621;DHT22;8929;51.008;6.804;2023-02-01T04:03:23;6.90;99.90
17621;DHT22;8929;51.008;6.804;2023-02-01T04:05:50;6.90;99.90
17621;DHT22;8929;51.008;6.804;2023-02-01T04:08:16;6.90;99.90
17621;DHT22;8929;51.008;6.804;2023-02-01T04:10:41;6.90;99.90
17621;DHT22;8929;51.008;6.804;2023-02-01T04:13:07;7.00;99.90
17621;DHT22;8929;51.008;6.804;2023-02-01T04:15:32;7.00;99.90
17621;DHT22;8929;51.008;6.804;2023-02-01T04:17:59;7.00;99.90
17621;DHT22;8929;51.008;6.804;2023-02-01T04:20:25;7.00;99.90
17621;DHT22;8929;51.008;6.804;2023-02-01T04:22:50;7.00;99.90
17621;DHT22;8929;51.008;6.804;2023-02-01T04:25:16;7.00;99.90
17621;DHT22;8929;51.008;6.804;2023-02-01T04:27:42;6.90;99.90
17621;DHT22;8929;51.008;6.804;2023-02-01T04:30:09;7.00;99.90
17621;DHT22;8929;51.008;6.804;2023-02-01T04:32:38;6.90;99.90
17621;DHT22;8929;51.008;6.804;2023-02-01T04:35:03;6.90;99.90
17621;DHT22;8929;51.008;6.804;2023-02-01T04:37:29;6.90;99.90
17621;DHT22;8929;51.008;6.804;2023-02-01T04:39:55;6.80;99.90
17621;DHT22;8929;51.008;6.804;2023-02-01T04:42:20;6.70;99.90
17621;DHT22;8929;51.008;6.804;2023-02-01T04:44:46;6.60;99.90
17621;DHT22;8929;51.008;6.804;2023-02-01T04:47:11;6.50;99.90
17621;DHT22;8929;51.008;6.804;2023-02-01T04:49:37;6.50;99.90
17621;DHT22;8929;51.008;6.804;2023-02-01T04:52:02;6.40;99.90
17621;DHT22;8929;51.008;6.804;2023-02-01T04:54:28;6.40;99.90
17621;DHT22;8929;51.008;6.804;2023-02-01T04:56:53;6.40;99.90
17621;DHT22;8929;51.008;6.804;2023-02-01T04:59:18;6.40;99.90
17621;DHT22;8929;51.008;6.804;2023-02-01T05:01:44;6.40;99.90
17621;DHT22;8929;51.008;6.804;2023-02-01T05:04:09;6.40;99.90
17621;DHT22;8929;51.008;6.804;2023-02-01T05:06:35;6.40;99.90
17621;DHT22;8929;51.008;6.804;2023-02-01T05:09:00;6.30;99.90
17621;DHT22;8929;51.008;6.804;2023-02-01T05:11:26;6.30;99.90
17621;DHT22;8929;51.008;6.804;2023-02-01T05:14:10;6.30;99.90
17621;DHT22;8929;51.008;6.804;2023-02-01T05:16:35;6.30;99.90
17621;DHT22;8929;51.008;6.804;2023-02-01T05:19:01;6.30;99.90
17621;DHT22;8929;51.008;6.804;2023-02-01T05:21:26;6.30;99.90
17621;DHT22;8929;51.008;6.804;2023-02-01T05:23:52;6.20;99.90
17621;DHT22;8929;51.008;6.804;2023-02-01T05:26:39;6.20;99.90
17621;DHT22;8929;51.008;6.804;2023-02-01T05:29:05;6.20;99.90
17621;DHT22;8929;51.008;6.804;2023-02-01T05:31:30;6.20;99.90
17621;DHT22;8929;51.008;6.804;2023-02-01T05:33:56;6.10;99.90
17621;DHT22;8929;51.008;6.804;2023-02-01T05:36:21;6.10;99.90
17621;DHT22;8929;51.008;6.804;2023-02-01T05:38:47;6.00;99.90
17621;DHT22;8929;51.008;6.804;2023-02-01T05:41:12;6.00;99.90
17621;DHT22;8929;51.008;6.804;2023-02-01T05:43:38;6.00;99.90
17621;DHT22;8929;51.008;6.804;2023-02-01T05:46:03;6.00;99.90
17621;DHT22;8929;51.008;6.804;2023-02-01T05:48:29;5.90;99.90
17621;DHT22;8929;51.008;6.804;2023-02-01T05:50:54;5.90;99.90
17621;DHT22;8929;51.008;6.804;2023-02-01T05:53:20;5.90;99.90
17621;DHT22;8929;51.008;6.804;2023-02-01T05:55:45;5.90;99.90
17621;DHT22;8929;51.008;6.804;2023-02-01T05:58:11;5.90;99.90
17621;DHT22;8929;51.008;6.804;2023-02-01T06:00:37;5.90;99.90
17621;DHT22;8929;51.008;6.804;2023-02-01T06:03:03;5.90;99.90
17621;DHT22;8929;51.008;6.804;2023-02-01T06:05:28;5.90;99.90
17621;DHT22;8929;51.008;6.804;2023-02-01T06:07:53;5.90;99.90
17621;DHT22;8929;51.008;6.804;2023-02-01T06:10:19;5.90;99.90
17621;DHT22;8929;51.008;6.804;2023-02-01T06:12:45;5.90;99.90
17621;DHT22;8929;51.008;6.804;2023-02-01T06:15:11;5.90;99.90
17621;DHT22;8929;51.008;6.804;2023-02-01T06:17:36;5.90;99.90
17621;DHT22;8929;51.008;6.804;2023-02-01T06:20:03;5.90;99.90
17621;DHT22;8929;51.008;6.804;2023-02-01T06:22:29;5.80;99.90
17621;DHT22;8929;51.008;6.804;2023-02-01T06:24:54;5.80;99.90
17621;DHT22;8929;51.008;6.804;2023-02-01T06:27:20;5.80;99.90
17621;DHT22;8929;51.008;6.804;2023-02-01T06:29:45;5.70;99.90
17621;DHT22;8929;51.008;6.804;2023-02-01T06:32:10;5.80;99.90
17621;DHT22;8929;51.008;6.804;2023-02-01T06:34:36;5.80;99.90
17621;DHT22;8929;51.008;6.804;2023-02-01T06:37:02;5.70;99.90
17621;DHT22;8929;51.008;6.804;2023-02-01T06:39:27;5.80;99.90
17621;DHT22;8929;51.008;6.804;2023-02-01T06:41:53;5.80;99.90
17621;DHT22;8929;51.008;6.804;2023-02-01T06:44:19;5.80;99.90
17621;DHT22;8929;51.008;6.804;2023-02-01T06:46:44;5.90;99.90
17621;DHT22;8929;51.008;6.804;2023-02-01T06:49:10;6.00;99.90
17621;DHT22;8929;51.008;6.804;2023-02-01T06:51:35;6.00;99.90
17621;DHT22;8929;51.008;6.804;2023-02-01T06:54:01;6.00;99.90
17621;DHT22;8929;51.008;6.804;2023-02-01T06:56:26;6.00;99.90
17621;DHT22;8929;51.008;6.804;2023-02-01T06:58:52;6.10;99.90
17621;DHT22;8929;51.008;6.804;2023-02-01T07:01:17;6.10;99.90
17621;DHT22;8929;51.008;6.804;2023-02-01T07:03:46;6.10;99.90
17621;DHT22;8929;51.008;6.804;2023-02-01T07:06:12;6.10;99.90
17621;DHT22;8929;51.008;6.804;2023-02-01T07:08:37;6.10;99.90
17621;DHT22;8929;51.008;6.804;2023-02-01T07:11:03;6.10;99.90
17621;DHT22;8929;51.008;6.804;2023-02-01T07:13:29;6.20;99.90
17621;DHT22;8929;51.008;6.804;2023-02-01T07:15:57;6.30;99.90
17621;DHT22;8929;51.008;6.804;2023-02-01T07:18:22;6.30;99.90
17621;DHT22;8929;51.008;6.804;2023-02-01T07:20:51;6.30;99.90
17621;DHT22;8929;51.008;6.804;2023-02-01T07:23:16;6.30;99.90
17621;DHT22;8929;51.008;6.804;2023-02-01T07:25:42;6.40;99.90
17621;DHT22;8929;51.008;6.804;2023-02-01T07:28:07;6.50;99.90
17621;DHT22;8929;51.008;6.804;2023-02-01T07:30:33;6.50;99.90
17621;DHT22;8929;51.008;6.804;2023-02-01T07:32:58;6.40;99.90
17621;DHT22;8929;51.008;6.804;2023-02-01T07:35:27;6.40;99.90
17621;DHT22;8929;51.008;6.804;2023-02-01T07:37:52;6.40;99.90
17621;DHT22;8929;51.008;6.804;2023-02-01T07:40:17;6.40;99.90
17621;DHT22;8929;51.008;6.804;2023-02-01T07:42:43;6.40;99.90
17621;DHT22;8929;51.008;6.804;2023-02-01T07:45:09;6.40;99.90
17621;DHT22;8929;51.008;6.804;2023-02-01T07:47:34;6.40;99.90
17621;DHT22;8929;51.008;6.804;2023-02-01T07:50:00;6.40;99.90
17621;DHT22;8929;51.008;6.804;2023-02-01T07:52:27;6.40;99.90
17621;DHT22;8929;51.008;6.804;2023-02-01T07:54:52;6.50;99.90
17621;DHT22;8929;51.008;6.804;2023-02-01T07:57:18;6.50;99.90
17621;DHT22;8929;51.008;6.804;2023-02-01T07:59:44;6.50;99.90
17621;DHT22;8929;51.008;6.804;2023-02-01T08:02:28;6.40;99.90
17621;DHT22;8929;51.008;6.804;2023-02-01T08:04:53;6.50;99.90
17621;DHT22;8929;51.008;6.804;2023-02-01T08:07:19;6.50;99.90
17621;DHT22;8929;51.008;6.804;2023-02-01T08:09:44;6.60;99.90
17621;DHT22;8929;51.008;6.804;2023-02-01T08:12:10;6.50;99.90
17621;DHT22;8929;51.008;6.804;2023-02-01T08:14:35;6.50;99.90
17621;DHT22;8929;51.008;6.804;2023-02-01T08:17:01;6.50;99.90
17621;DHT22;8929;51.008;6.804;2023-02-01T08:19:26;6.50;99.90
17621;DHT22;8929;51.008;6.804;2023-02-01T08:21:52;6.60;99.90
17621;DHT22;8929;51.008;6.804;2023-02-01T08:24:17;6.60;99.90
17621;DHT22;8929;51.008;6.804;2023-02-01T08:26:43;6.70;99.90
17621;DHT22;8929;51.008;6.804;2023-02-01T08:29:08;6.60;99.90
17621;DHT22;8929;51.008;6.804;2023-02-01T08:31:35;6.60;99.90
17621;DHT22;8929;51.008;6.804;2023-02-01T08:34:01;6.60;99.90
17621;DHT22;8929;51.008;6.804;2023-02-01T08:36:29;6.70;99.90
17621;DHT22;8929;51.008;6.804;2023-02-01T08:38:55;6.70;99.90
17621;DHT22;8929;51.008;6.804;2023-02-01T08:41:22;6.70;99.90
17621;DHT22;8929;51.008;6.804;2023-02-01T08:43:47;6.70;99.90
17621;DHT22;8929;51.008;6.804;2023-02-01T08:46:13;6.80;99.90
17621;DHT22;8929;51.008;6.804;2023-02-01T08:48:39;6.80;99.90
17621;DHT22;8929;51.008;6.804;2023-02-01T08:51:06;6.80;99.90
17621;DHT22;8929;51.008;6.804;2023-02-01T08:53:32;6.80;99.90
17621;DHT22;8929;51.008;6.804;2023-02-01T08:55:57;6.90;99.90
17621;DHT22;8929;51.008;6.804;2023-02-01T08:58:23;6.90;99.90
17621;DHT22;8929;51.008;6.804;2023-02-01T09:00:48;6.90;99.90
17621;DHT22;8929;51.008;6.804;2023-02-01T09:03:15;6.90;99.90
17621;DHT22;8929;51.008;6.804;2023-02-01T09:05:40;7.00;99.90
17621;DHT22;8929;51.008;6.804;2023-02-01T09:08:06;7.00;99.90
17621;DHT22;8929;51.008;6.804;2023-02-01T09:10:32;7.00;99.90
17621;DHT22;8929;51.008;6.804;2023-02-01T09:12:58;7.10;99.90
17621;DHT22;8929;51.008;6.804;2023-02-01T09:15:23;7.20;99.90
17621;DHT22;8929;51.008;6.804;2023-02-01T09:17:49;7.40;99.90
17621;DHT22;8929;51.008;6.804;2023-02-01T09:20:14;7.40;99.90
17621;DHT22;8929;51.008;6.804;2023-02-01T09:22:40;7.40;99.90
17621;DHT22;8929;51.008;6.804;2023-02-01T09:25:06;7.20;99.90
17621;DHT22;8929;51.008;6.804;2023-02-01T09:27:31;7.10;99.90
17621;DHT22;8929;51.008;6.804;2023-02-01T09:29:57;7.10;99.90
17621;DHT22;8929;51.008;6.804;2023-02-01T09:32:22;7.10;99.90
17621;DHT22;8929;51.008;6.804;2023-02-01T09:34:49;7.10;99.90
17621;DHT22;8929;51.008;6.804;2023-02-01T09:37:14;7.20;99.90
17621;DHT22;8929;51.008;6.804;2023-02-01T09:39:40;7.20;99.90
17621;DHT22;8929;51.008;6.804;2023-02-01T09:47:14;7.50;99.90
17621;DHT22;8929;51.008;6.804;2023-02-01T09:49:43;7.60;99.90
17621;DHT22;8929;51.008;6.804;2023-02-01T09:52:12;7.70;99.90
17621;DHT22;8929;51.008;6.804;2023-02-01T09:54:52;7.60;99.90
17621;DHT22;8929;51.008;6.804;2023-02-01T09:57:24;7.70;99.90
17621;DHT22;8929;51.008;6.804;2023-02-01T09:59:53;7.70;99.90
17621;DHT22;8929;51.008;6.804;2023-02-01T10:02:21;7.70;99.90
17621;DHT22;8929;51.008;6.804;2023-02-01T10:04:48;7.60;99.90
17621;DHT22;8929;51.008;6.804;2023-02-01T10:10:02;7.70;99.90
17621;DHT22;8929;51.008;6.804;2023-02-01T10:15:05;7.70;99.90
17621;DHT22;8929;51.008;6.804;2023-02-01T10:22:40;8.20;99.90
17621;DHT22;8929;51.008;6.804;2023-02-01T10:25:23;8.40;99.90
17621;DHT22;8929;51.008;6.804;2023-02-01T10:27:51;8.40;99.90
17621;DHT22;8929;51.008;6.804;2023-02-01T10:30:18;8.40;99.90
17621;DHT22;8929;51.008;6.804;2023-02-01T10:32:44;8.30;99.90
17621;DHT22;8929;51.008;6.804;2023-02-01T10:35:13;8.20;99.90
17621;DHT22;8929;51.008;6.804;2023-02-01T10:37:40;8.30;99.90
17621;DHT22;8929;51.008;6.804;2023-02-01T10:42:35;8.50;99.90
17621;DHT22;8929;51.008;6.804;2023-02-01T10:45:00;8.50;99.90
17621;DHT22;8929;51.008;6.804;2023-02-01T10:47:27;8.60;99.90
17621;DHT22;8929;51.008;6.804;2023-02-01T10:50:38;8.80;99.90
17621;DHT22;8929;51.008;6.804;2023-02-01T10:53:01;9.10;99.90
17621;DHT22;8929;51.008;6.804;2023-02-01T10:55:33;9.50;99.90
17621;DHT22;8929;51.008;6.804;2023-02-01T10:58:03;9.20;99.90
17621;DHT22;8929;51.008;6.804;2023-02-01T11:00:34;9.30;99.90
17621;DHT22;8929;51.008;6.804;2023-02-01T11:03:18;9.40;99.90
17621;DHT22;8929;51.008;6.804;2023-02-01T11:05:47;9.30;99.90
17621;DHT22;8929;51.008;6.804;2023-02-01T11:08:16;9.30;99.90
17621;DHT22;8929;51.008;6.804;2023-02-01T11:10:44;9.30;99.90
17621;DHT22;8929;51.008;6.804;2023-02-01T11:13:17;9.20;99.90
17621;DHT22;8929;51.008;6.804;2023-02-01T11:15:43;9.30;99.90
17621;DHT22;8929;51.008;6.804;2023-02-01T11:18:20;9.20;99.90
17621;DHT22;8929;51.008;6.804;2023-02-01T11:20:50;9.30;99.90
17621;DHT22;8929;51.008;6.804;2023-02-01T11:23:26;9.10;99.90
17621;DHT22;8929;51.008;6.804;2023-02-01T11:25:54;8.90;99.90
17621;DHT22;8929;51.008;6.804;2023-02-01T11:28:24;8.80;99.90
17621;DHT22;8929;51.008;6.804;2023-02-01T11:30:51;9.00;99.90
17621;DHT22;8929;51.008;6.804;2023-02-01T11:33:24;8.90;99.90
17621;DHT22;8929;51.008;6.804;2023-02-01T11:35:52;9.20;99.90
17621;DHT22;8929;51.008;6.804;2023-02-01T11:38:25;9.50;99.90
17621;DHT22;8929;51.008;6.804;2023-02-01T11:40:51;9.50;99.90
17621;DHT22;8929;51.008;6.804;2023-02-01T11:43:24;9.60;99.90
17621;DHT22;8929;51.008;6.804;2023-02-01T11:45:58;9.50;99.90
17621;DHT22;8929;51.008;6.804;2023-02-01T11:48:24;9.50;99.90
17621;DHT22;8929;51.008;6.804;2023-02-01T11:58:41;9.60;99.90
17621;DHT22;8929;51.008;6.804;2023-02-01T12:12:01;8.90;99.90
17621;DHT22;8929;51.008;6.804;2023-02-01T12:56:52;8.90;99.90
17621;DHT22;8929;51.008;6.804;2023-02-01T12:59:39;8.80;99.90
17621;DHT22;8929;51.008;6.804;2023-02-01T13:08:31;8.70;99.90
17621;DHT22;8929;51.008;6.804;2023-02-01T13:16:56;8.90;99.90
17621;DHT22;8929;51.008;6.804;2023-02-01T13:21:49;8.80;99.90
17621;DHT22;8929;51.008;6.804;2023-02-01T13:27:00;8.70;99.90
17621;DHT22;8929;51.008;6.804;2023-02-01T13:29:26;8.70;99.90
17621;DHT22;8929;51.008;6.804;2023-02-01T13:32:09;8.70;99.90
17621;DHT22;8929;51.008;6.804;2023-02-01T13:42:27;8.60;99.90
17621;DHT22;8929;51.008;6.804;2023-02-01T13:44:59;8.60;99.90
17621;DHT22;8929;51.008;6.804;2023-02-01T13:49:54;8.60;99.90
17621;DHT22;8929;51.008;6.804;2023-02-01T13:52:24;8.70;99.90
17621;DHT22;8929;51.008;6.804;2023-02-01T13:54:58;8.60;99.90
17621;DHT22;8929;51.008;6.804;2023-02-01T13:57:32;8.70;99.90
17621;DHT22;8929;51.008;6.804;2023-02-01T14:02:46;8.80;99.90
17621;DHT22;8929;51.008;6.804;2023-02-01T14:08:03;8.80;99.90
17621;DHT22;8929;51.008;6.804;2023-02-01T14:23:44;9.00;99.90
17621;DHT22;8929;51.008;6.804;2023-02-01T14:26:12;9.00;99.90
17621;DHT22;8929;51.008;6.804;2023-02-01T14:28:40;9.00;99.90
17621;DHT22;8929;51.008;6.804;2023-02-01T14:31:17;9.00;99.90
17621;DHT22;8929;51.008;6.804;2023-02-01T14:33:44;9.00;99.90
17621;DHT22;8929;51.008;6.804;2023-02-01T14:36:11;9.00;99.90
17621;DHT22;8929;51.008;6.804;2023-02-01T14:38:37;9.00;99.90
17621;DHT22;8929;51.008;6.804;2023-02-01T14:41:15;8.90;99.90
17621;DHT22;8929;51.008;6.804;2023-02-01T14:49:28;8.90;99.90
17621;DHT22;8929;51.008;6.804;2023-02-01T14:51:54;8.80;99.90
17621;DHT22;8929;51.008;6.804;2023-02-01T14:54:21;8.80;99.90
17621;DHT22;8929;51.008;6.804;2023-02-01T14:56:50;8.90;99.90
17621;DHT22;8929;51.008;6.804;2023-02-01T14:59:16;8.90;99.90
17621;DHT22;8929;51.008;6.804;2023-02-01T15:01:48;9.00;99.90
17621;DHT22;8929;51.008;6.804;2023-02-01T15:04:16;8.90;99.90
17621;DHT22;8929;51.008;6.804;2023-02-01T15:09:18;8.80;99.90
17621;DHT22;8929;51.008;6.804;2023-02-01T15:14:30;8.90;99.90
17621;DHT22;8929;51.008;6.804;2023-02-01T15:16:56;8.90;99.90
17621;DHT22;8929;51.008;6.804;2023-02-01T15:19:22;8.80;99.90
17621;DHT22;8929;51.008;6.804;2023-02-01T15:21:49;8.80;99.90
17621;DHT22;8929;51.008;6.804;2023-02-01T15:26:43;8.80;99.90
17621;DHT22;8929;51.008;6.804;2023-02-01T15:29:10;8.80;99.90
17621;DHT22;8929;51.008;6.804;2023-02-01T15:31:40;8.80;99.90
17621;DHT22;8929;51.008;6.804;2023-02-01T15:34:06;8.80;99.90
17621;DHT22;8929;51.008;6.804;2023-02-01T15:36:32;8.80;99.90
17621;DHT22;8929;51.008;6.804;2023-02-01T15:39:12;8.90;99.90
17621;DHT22;8929;51.008;6.804;2023-02-01T15:41:38;8.90;99.90
17621;DHT22;8929;51.008;6.804;2023-02-01T15:44:05;8.90;99.90
17621;DHT22;8929;51.008;6.804;2023-02-01T15:48:59;8.90;99.90
17621;DHT22;8929;51.008;6.804;2023-02-01T15:51:28;8.90;99.90
17621;DHT22;8929;51.008;6.804;2023-02-01T15:56:29;8.90;99.90
17621;DHT22;8929;51.008;6.804;2023-02-01T15:58:59;9.00;99.90
17621;DHT22;8929;51.008;6.804;2023-02-01T16:01:25;9.00;99.90
17621;DHT22;8929;51.008;6.804;2023-02-01T16:04:01;8.90;99.90
17621;DHT22;8929;51.008;6.804;2023-02-01T16:06:28;8.90;99.90
17621;DHT22;8929;51.008;6.804;2023-02-01T16:08:59;8.90;99.90
17621;DHT22;8929;51.008;6.804;2023-02-01T16:11:29;8.90;99.90
17621;DHT22;8929;51.008;6.804;2023-02-01T16:13:58;8.90;99.90
17621;DHT22;8929;51.008;6.804;2023-02-01T16:16:25;8.90;99.90
17621;DHT22;8929;51.008;6.804;2023-02-01T16:18:50;8.80;99.90
17621;DHT22;8929;51.008;6.804;2023-02-01T16:21:16;8.80;99.90
17621;DHT22;8929;51.008;6.804;2023-02-01T16:23:41;8.80;99.90
17621;DHT22;8929;51.008;6.804;2023-02-01T16:26:06;8.80;99.90
17621;DHT22;8929;51.008;6.804;2023-02-01T16:28:32;8.70;99.90
17621;DHT22;8929;51.008;6.804;2023-02-01T16:30:58;8.50;99.90
17621;DHT22;8929;51.008;6.804;2023-02-01T16:33:24;8.50;99.90
17621;DHT22;8929;51.008;6.804;2023-02-01T16:35:50;8.40;99.90
17621;DHT22;8929;51.008;6.804;2023-02-01T16:38:16;8.30;99.90
17621;DHT22;8929;51.008;6.804;2023-02-01T16:40:44;8.30;99.90
17621;DHT22;8929;51.008;6.804;2023-02-01T16:43:27;8.30;99.90
17621;DHT22;8929;51.008;6.804;2023-02-01T16:45:53;8.30;99.90
17621;DHT22;8929;51.008;6.804;2023-02-01T16:48:21;8.20;99.90
17621;DHT22;8929;51.008;6.804;2023-02-01T16:50:48;8.20;99.90
17621;DHT22;8929;51.008;6.804;2023-02-01T16:53:14;8.20;99.90
17621;DHT22;8929;51.008;6.804;2023-02-01T16:55:41;8.20;99.90
17621;DHT22;8929;51.008;6.804;2023-02-01T16:58:08;8.20;99.90
17621;DHT22;8929;51.008;6.804;2023-02-01T17:00:34;8.10;99.90
17621;DHT22;8929;51.008;6.804;2023-02-01T17:03:02;8.10;99.90
17621;DHT22;8929;51.008;6.804;2023-02-01T17:05:27;8.00;99.90
17621;DHT22;8929;51.008;6.804;2023-02-01T17:08:01;8.10;99.90
17621;DHT22;8929;51.008;6.804;2023-02-01T17:10:29;8.00;99.90
17621;DHT22;8929;51.008;6.804;2023-02-01T17:12:54;8.00;99.90
17621;DHT22;8929;51.008;6.804;2023-02-01T17:15:20;8.10;99.90
17621;DHT22;8929;51.008;6.804;2023-02-01T17:17:45;8.10;99.90
17621;DHT22;8929;51.008;6.804;2023-02-01T17:20:18;8.10;99.90
17621;DHT22;8929;51.008;6.804;2023-02-01T17:22:44;8.10;99.90
17621;DHT22;8929;51.008;6.804;2023-02-01T17:25:14;8.10;99.90
17621;DHT22;8929;51.008;6.804;2023-02-01T17:27:40;8.00;99.90
17621;DHT22;8929;51.008;6.804;2023-02-01T17:30:06;7.80;99.90
17621;DHT22;8929;51.008;6.804;2023-02-01T17:32:35;7.80;99.90
17621;DHT22;8929;51.008;6.804;2023-02-01T17:35:00;7.70;99.90
17621;DHT22;8929;51.008;6.804;2023-02-01T17:37:28;7.70;99.90
17621;DHT22;8929;51.008;6.804;2023-02-01T17:39:53;7.70;99.90
17621;DHT22;8929;51.008;6.804;2023-02-01T17:42:19;7.60;99.90
17621;DHT22;8929;51.008;6.804;2023-02-01T17:44:45;7.70;99.90
17621;DHT22;8929;51.008;6.804;2023-02-01T17:47:10;7.60;99.90
17621;DHT22;8929;51.008;6.804;2023-02-01T17:49:35;7.60;99.90
17621;DHT22;8929;51.008;6.804;2023-02-01T17:52:03;7.70;99.90
17621;DHT22;8929;51.008;6.804;2023-02-01T17:54:29;7.70;99.90
17621;DHT22;8929;51.008;6.804;2023-02-01T17:56:54;7.70;99.90
17621;DHT22;8929;51.008;6.804;2023-02-01T17:59:24;7.70;99.90
17621;DHT22;8929;51.008;6.804;2023-02-01T18:01:50;7.70;99.90
17621;DHT22;8929;51.008;6.804;2023-02-01T18:04:17;7.70;99.90
17621;DHT22;8929;51.008;6.804;2023-02-01T18:06:43;7.70;99.90
17621;DHT22;8929;51.008;6.804;2023-02-01T18:09:09;7.80;99.90
17621;DHT22;8929;51.008;6.804;2023-02-01T18:11:34;7.80;99.90
17621;DHT22;8929;51.008;6.804;2023-02-01T18:14:00;7.80;99.90
17621;DHT22;8929;51.008;6.804;2023-02-01T18:16:30;7.90;99.90
17621;DHT22;8929;51.008;6.804;2023-02-01T18:18:55;7.90;99.90
17621;DHT22;8929;51.008;6.804;2023-02-01T18:21:36;7.90;99.90
17621;DHT22;8929;51.008;6.804;2023-02-01T18:24:02;7.90;99.90
17621;DHT22;8929;51.008;6.804;2023-02-01T18:26:28;7.90;99.90
17621;DHT22;8929;51.008;6.804;2023-02-01T18:28:53;7.90;99.90
17621;DHT22;8929;51.008;6.804;2023-02-01T18:31:21;7.90;99.90
17621;DHT22;8929;51.008;6.804;2023-02-01T18:33:47;7.90;99.90
17621;DHT22;8929;51.008;6.804;2023-02-01T18:36:13;8.00;99.90
17621;DHT22;8929;51.008;6.804;2023-02-01T18:38:40;8.00;99.90
17621;DHT22;8929;51.008;6.804;2023-02-01T18:41:06;7.90;99.90
17621;DHT22;8929;51.008;6.804;2023-02-01T18:43:33;8.00;99.90
17621;DHT22;8929;51.008;6.804;2023-02-01T18:45:58;8.00;99.90
17621;DHT22;8929;51.008;6.804;2023-02-01T18:48:24;8.00;99.90
17621;DHT22;8929;51.008;6.804;2023-02-01T18:50:50;8.10;99.90
17621;DHT22;8929;51.008;6.804;2023-02-01T18:53:19;8.10;99.90
17621;DHT22;8929;51.008;6.804;2023-02-01T18:55:48;8.10;99.90
17621;DHT22;8929;51.008;6.804;2023-02-01T18:58:14;8.10;99.90
17621;DHT22;8929;51.008;6.804;2023-02-01T19:00:40;8.10;99.90
17621;DHT22;8929;51.008;6.804;2023-02-01T19:03:06;8.10;99.90
17621;DHT22;8929;51.008;6.804;2023-02-01T19:05:31;8.10;99.90
17621;DHT22;8929;51.008;6.804;2023-02-01T19:07:57;8.00;99.90
17621;DHT22;8929;51.008;6.804;2023-02-01T19:10:22;8.10;99.90